sensor_id;sensor_type;location;lat;lon;timestamp;P1;durP1;ratioP1;P2;durP2;ratioP2
15230;SDS011;32569;51.762;8.564;2023-04-24T00:00:53;1.27;;;1.27;;
15230;SDS011;32569;51.762;8.564;2023-04-24T00:03:21;1.20;;;0.90;;
15230;SDS011;32569;51.762;8.564;2023-04-24T00:05:48;1.13;;;1.00;;
15230;SDS011;32569;51.762;8.564;2023-04-24T00:08:16;1.10;;;1.10;;
15230;SDS011;32569;51.762;8.564;2023-04-24T00:10:42;1.83;;;1.30;;
15230;SDS011;32569;51.762;8.564;2023-04-24T00:13:09;0.90;;;0.90;;
15230;SDS011;32569;51.762;8.564;2023-04-24T00:15:36;1.00;;;1.00;;
15230;SDS011;32569;51.762;8.564;2023-04-24T00:18:03;1.20;;;1.10;;
15230;SDS011;32569;51.762;8.564;2023-04-24T00:20:29;1.03;;;1.00;;
15230;SDS011;32569;51.762;8.564;2023-04-24T00:22:57;1.00;;;0.90;;
15230;SDS011;32569;51.762;8.564;2023-04-24T00:25:25;0.90;;;0.90;;
15230;SDS011;32569;51.762;8.564;2023-04-24T00:27:52;1.40;;;1.40;;
15230;SDS011;32569;51.762;8.564;2023-04-24T00:30:18;0.93;;;0.93;;
15230;SDS011;32569;51.762;8.564;2023-04-24T00:32:45;0.83;;;0.83;;
15230;SDS011;32569;51.762;8.564;2023-04-24T00:35:12;1.57;;;0.90;;
15230;SDS011;32569;51.762;8.564;2023-04-24T00:37:39;0.97;;;0.97;;
15230;SDS011;32569;51.762;8.564;2023-04-24T00:40:06;1.07;;;0.97;;
15230;SDS011;32569;51.762;8.564;2023-04-24T00:42:35;1.30;;;0.90;;
15230;SDS011;32569;51.762;8.564;2023-04-24T00:45:02;1.57;;;1.27;;
15230;SDS011;32569;51.762;8.564;2023-04-24T00:47:30;1.80;;;1.20;;
15230;SDS011;32569;51.762;8.564;2023-04-24T00:49:58;1.03;;;1.03;;
15230;SDS011;32569;51.762;8.564;2023-04-24T00:52:26;1.27;;;0.90;;
15230;SDS011;32569;51.762;8.564;2023-04-24T00:54:53;1.90;;;1.07;;
15230;SDS011;32569;51.762;8.564;2023-04-24T00:57:20;1.00;;;1.00;;
15230;SDS011;32569;51.762;8.564;2023-04-24T00:59:49;1.10;;;1.10;;
15230;SDS011;32569;51.762;8.564;2023-04-24T01:02:17;0.90;;;0.90;;
15230;SDS011;32569;51.762;8.564;2023-04-24T01:04:44;1.20;;;1.10;;
15230;SDS011;32569;51.762;8.564;2023-04-24T01:07:11;1.00;;;1.00;;
15230;SDS011;32569;51.762;8.564;2023-04-24T01:09:38;1.07;;;1.07;;
15230;SDS011;32569;51.762;8.564;2023-04-24T01:12:06;1.00;;;1.00;;
15230;SDS011;32569;51.762;8.564;2023-04-24T01:14:34;2.33;;;2.13;;
15230;SDS011;32569;51.762;8.564;2023-04-24T01:17:02;0.90;;;0.90;;
15230;SDS011;32569;51.762;8.564;2023-04-24T01:19:28;1.20;;;1.07;;
15230;SDS011;32569;51.762;8.564;2023-04-24T01:21:58;0.87;;;0.87;;
15230;SDS011;32569;51.762;8.564;2023-04-24T01:24:29;0.90;;;0.90;;
15230;SDS011;32569;51.762;8.564;2023-04-24T01:26:56;1.10;;;1.10;;
15230;SDS011;32569;51.762;8.564;2023-04-24T01:29:23;1.00;;;1.00;;
15230;SDS011;32569;51.762;8.564;2023-04-24T01:31:50;0.90;;;0.90;;
15230;SDS011;32569;51.762;8.564;2023-04-24T01:34:23;1.10;;;1.00;;
15230;SDS011;32569;51.762;8.564;2023-04-24T01:36:49;1.13;;;0.90;;
15230;SDS011;32569;51.762;8.564;2023-04-24T01:39:16;1.20;;;1.20;;
15230;SDS011;32569;51.762;8.564;2023-04-24T01:41:44;1.00;;;1.00;;
15230;SDS011;32569;51.762;8.564;2023-04-24T01:44:11;1.30;;;1.10;;
15230;SDS011;32569;51.762;8.564;2023-04-24T01:46:38;1.00;;;1.00;;
15230;SDS011;32569;51.762;8.564;2023-04-24T01:49:04;1.10;;;1.10;;
15230;SDS011;32569;51.762;8.564;2023-04-24T01:51:31;1.20;;;1.10;;
15230;SDS011;32569;51.762;8.564;2023-04-24T01:53:58;1.00;;;1.00;;
15230;SDS011;32569;51.762;8.564;2023-04-24T01:56:24;1.00;;;1.00;;
15230;SDS011;32569;51.762;8.564;2023-04-24T01:58:55;1.00;;;1.00;;
15230;SDS011;32569;51.762;8.564;2023-04-24T02:01:23;1.00;;;1.00;;
15230;SDS011;32569;51.762;8.564;2023-04-24T02:03:50;1.80;;;1.20;;
15230;SDS011;32569;51.762;8.564;2023-04-24T02:06:19;1.67;;;1.17;;
15230;SDS011;32569;51.762;8.564;2023-04-24T02:08:47;0.80;;;0.80;;
15230;SDS011;32569;51.762;8.564;2023-04-24T02:11:13;0.90;;;0.90;;
15230;SDS011;32569;51.762;8.564;2023-04-24T02:13:40;1.30;;;1.20;;
15230;SDS011;32569;51.762;8.564;2023-04-24T02:16:08;1.73;;;0.93;;
15230;SDS011;32569;51.762;8.564;2023-04-24T02:18:35;1.20;;;1.10;;
15230;SDS011;32569;51.762;8.564;2023-04-24T02:21:01;0.80;;;0.80;;
15230;SDS011;32569;51.762;8.564;2023-04-24T02:23:28;1.37;;;1.27;;
15230;SDS011;32569;51.762;8.564;2023-04-24T02:25:55;0.90;;;0.90;;
15230;SDS011;32569;51.762;8.564;2023-04-24T02:28:21;1.00;;;1.00;;
15230;SDS011;32569;51.762;8.564;2023-04-24T02:30:48;1.80;;;1.10;;
15230;SDS011;32569;51.762;8.564;2023-04-24T02:33:20;1.30;;;1.20;;
15230;SDS011;32569;51.762;8.564;2023-04-24T02:35:47;1.03;;;1.03;;
15230;SDS011;32569;51.762;8.564;2023-04-24T02:38:13;1.30;;;1.20;;
15230;SDS011;32569;51.762;8.564;2023-04-24T02:40:47;1.07;;;1.00;;
15230;SDS011;32569;51.762;8.564;2023-04-24T02:43:14;1.20;;;1.10;;
15230;SDS011;32569;51.762;8.564;2023-04-24T02:45:43;1.40;;;1.30;;
15230;SDS011;32569;51.762;8.564;2023-04-24T02:48:09;1.43;;;1.20;;
15230;SDS011;32569;51.762;8.564;2023-04-24T02:50:37;1.33;;;1.00;;
15230;SDS011;32569;51.762;8.564;2023-04-24T02:53:04;1.10;;;1.10;;
15230;SDS011;32569;51.762;8.564;2023-04-24T02:55:31;1.43;;;1.07;;
15230;SDS011;32569;51.762;8.564;2023-04-24T02:57:57;3.80;;;1.30;;
15230;SDS011;32569;51.762;8.564;2023-04-24T03:00:24;1.10;;;1.10;;
15230;SDS011;32569;51.762;8.564;2023-04-24T03:02:51;1.03;;;1.03;;
15230;SDS011;32569;51.762;8.564;2023-04-24T03:05:18;1.00;;;1.00;;
15230;SDS011;32569;51.762;8.564;2023-04-24T03:07:49;1.30;;;1.20;;
15230;SDS011;32569;51.762;8.564;2023-04-24T03:10:17;1.13;;;1.10;;
15230;SDS011;32569;51.762;8.564;2023-04-24T03:12:44;1.27;;;1.20;;
15230;SDS011;32569;51.762;8.564;2023-04-24T03:15:11;1.10;;;1.10;;
15230;SDS011;32569;51.762;8.564;2023-04-24T03:17:37;1.70;;;1.20;;
15230;SDS011;32569;51.762;8.564;2023-04-24T03:20:04;1.40;;;1.30;;
15230;SDS011;32569;51.762;8.564;2023-04-24T03:22:33;1.43;;;1.33;;
15230;SDS011;32569;51.762;8.564;2023-04-24T03:25:01;1.50;;;1.40;;
15230;SDS011;32569;51.762;8.564;2023-04-24T03:27:31;1.50;;;1.40;;
15230;SDS011;32569;51.762;8.564;2023-04-24T03:29:57;1.20;;;1.20;;
15230;SDS011;32569;51.762;8.564;2023-04-24T03:32:24;1.50;;;1.40;;
15230;SDS011;32569;51.762;8.564;2023-04-24T03:34:51;2.47;;;1.70;;
15230;SDS011;32569;51.762;8.564;2023-04-24T03:37:18;1.50;;;1.40;;
15230;SDS011;32569;51.762;8.564;2023-04-24T03:39:44;1.77;;;1.63;;
15230;SDS011;32569;51.762;8.564;2023-04-24T03:42:12;1.60;;;1.50;;
15230;SDS011;32569;51.762;8.564;2023-04-24T03:44:39;1.93;;;1.63;;
15230;SDS011;32569;51.762;8.564;2023-04-24T03:47:05;1.40;;;1.30;;
15230;SDS011;32569;51.762;8.564;2023-04-24T03:49:32;1.40;;;1.33;;
15230;SDS011;32569;51.762;8.564;2023-04-24T03:51:59;1.57;;;1.47;;
15230;SDS011;32569;51.762;8.564;2023-04-24T03:54:25;1.43;;;1.33;;
15230;SDS011;32569;51.762;8.564;2023-04-24T03:56:52;1.50;;;1.40;;
15230;SDS011;32569;51.762;8.564;2023-04-24T03:59:21;1.77;;;1.60;;
15230;SDS011;32569;51.762;8.564;2023-04-24T04:01:47;2.17;;;1.40;;
15230;SDS011;32569;51.762;8.564;2023-04-24T04:04:14;1.77;;;1.67;;
15230;SDS011;32569;51.762;8.564;2023-04-24T04:06:40;1.70;;;1.50;;
15230;SDS011;32569;51.762;8.564;2023-04-24T04:09:07;1.70;;;1.60;;
15230;SDS011;32569;51.762;8.564;2023-04-24T04:11:34;2.47;;;2.20;;
15230;SDS011;32569;51.762;8.564;2023-04-24T04:14:01;2.23;;;2.13;;
15230;SDS011;32569;51.762;8.564;2023-04-24T04:16:32;1.90;;;1.80;;
15230;SDS011;32569;51.762;8.564;2023-04-24T04:18:58;3.87;;;2.20;;
15230;SDS011;32569;51.762;8.564;2023-04-24T04:21:25;2.33;;;2.13;;
15230;SDS011;32569;51.762;8.564;2023-04-24T04:23:52;2.10;;;2.00;;
15230;SDS011;32569;51.762;8.564;2023-04-24T04:26:19;2.60;;;2.00;;
15230;SDS011;32569;51.762;8.564;2023-04-24T04:28:46;2.10;;;2.00;;
15230;SDS011;32569;51.762;8.564;2023-04-24T04:31:14;2.50;;;2.30;;
15230;SDS011;32569;51.762;8.564;2023-04-24T04:33:41;2.10;;;2.00;;
15230;SDS011;32569;51.762;8.564;2023-04-24T04:36:08;2.40;;;2.20;;
15230;SDS011;32569;51.762;8.564;2023-04-24T04:38:35;1.97;;;1.87;;
15230;SDS011;32569;51.762;8.564;2023-04-24T04:41:02;2.40;;;2.30;;
15230;SDS011;32569;51.762;8.564;2023-04-24T04:43:28;2.23;;;2.00;;
15230;SDS011;32569;51.762;8.564;2023-04-24T04:45:55;2.37;;;2.17;;
15230;SDS011;32569;51.762;8.564;2023-04-24T04:48:25;2.47;;;2.30;;
15230;SDS011;32569;51.762;8.564;2023-04-24T04:50:53;5.00;;;2.30;;
15230;SDS011;32569;51.762;8.564;2023-04-24T04:53:20;3.20;;;3.00;;
15230;SDS011;32569;51.762;8.564;2023-04-24T04:55:46;2.87;;;2.53;;
15230;SDS011;32569;51.762;8.564;2023-04-24T04:58:13;3.77;;;3.47;;
15230;SDS011;32569;51.762;8.564;2023-04-24T05:00:40;4.40;;;4.00;;
15230;SDS011;32569;51.762;8.564;2023-04-24T05:03:07;6.10;;;5.50;;
15230;SDS011;32569;51.762;8.564;2023-04-24T05:05:34;6.63;;;5.70;;
15230;SDS011;32569;51.762;8.564;2023-04-24T05:08:02;8.13;;;7.23;;
15230;SDS011;32569;51.762;8.564;2023-04-24T05:10:28;7.73;;;7.03;;
15230;SDS011;32569;51.762;8.564;2023-04-24T05:12:55;7.90;;;7.17;;
15230;SDS011;32569;51.762;8.564;2023-04-24T05:15:22;8.80;;;7.73;;
15230;SDS011;32569;51.762;8.564;2023-04-24T05:17:48;8.40;;;7.60;;
15230;SDS011;32569;51.762;8.564;2023-04-24T05:20:15;8.07;;;7.27;;
15230;SDS011;32569;51.762;8.564;2023-04-24T05:22:42;7.40;;;6.70;;
15230;SDS011;32569;51.762;8.564;2023-04-24T05:25:10;8.33;;;7.47;;
15230;SDS011;32569;51.762;8.564;2023-04-24T05:27:37;8.87;;;7.63;;
15230;SDS011;32569;51.762;8.564;2023-04-24T05:30:05;10.60;;;8.57;;
15230;SDS011;32569;51.762;8.564;2023-04-24T05:32:32;9.37;;;6.97;;
15230;SDS011;32569;51.762;8.564;2023-04-24T05:34:59;6.87;;;6.30;;
15230;SDS011;32569;51.762;8.564;2023-04-24T05:37:26;7.87;;;7.07;;
15230;SDS011;32569;51.762;8.564;2023-04-24T05:39:53;7.87;;;6.43;;
15230;SDS011;32569;51.762;8.564;2023-04-24T05:42:21;7.03;;;6.33;;
15230;SDS011;32569;51.762;8.564;2023-04-24T05:44:47;6.53;;;5.97;;
15230;SDS011;32569;51.762;8.564;2023-04-24T05:47:14;7.83;;;6.63;;
15230;SDS011;32569;51.762;8.564;2023-04-24T05:49:41;8.23;;;7.17;;
15230;SDS011;32569;51.762;8.564;2023-04-24T05:52:07;7.50;;;6.70;;
15230;SDS011;32569;51.762;8.564;2023-04-24T05:54:34;12.77;;;8.40;;
15230;SDS011;32569;51.762;8.564;2023-04-24T05:57:01;8.97;;;7.93;;
15230;SDS011;32569;51.762;8.564;2023-04-24T05:59:33;7.80;;;7.10;;
15230;SDS011;32569;51.762;8.564;2023-04-24T06:02:01;8.13;;;7.33;;
15230;SDS011;32569;51.762;8.564;2023-04-24T06:04:27;8.20;;;7.40;;
15230;SDS011;32569;51.762;8.564;2023-04-24T06:06:54;9.40;;;7.17;;
15230;SDS011;32569;51.762;8.564;2023-04-24T06:09:21;7.87;;;6.97;;
15230;SDS011;32569;51.762;8.564;2023-04-24T06:11:48;8.40;;;7.60;;
15230;SDS011;32569;51.762;8.564;2023-04-24T06:14:17;8.73;;;7.13;;
15230;SDS011;32569;51.762;8.564;2023-04-24T06:16:45;9.23;;;7.47;;
15230;SDS011;32569;51.762;8.564;2023-04-24T06:19:12;7.60;;;6.90;;
15230;SDS011;32569;51.762;8.564;2023-04-24T06:21:39;7.83;;;7.03;;
15230;SDS011;32569;51.762;8.564;2023-04-24T06:24:05;8.10;;;7.00;;
15230;SDS011;32569;51.762;8.564;2023-04-24T06:26:32;10.03;;;6.90;;
15230;SDS011;32569;51.762;8.564;2023-04-24T06:28:59;10.03;;;7.23;;
15230;SDS011;32569;51.762;8.564;2023-04-24T06:31:25;8.20;;;7.00;;
15230;SDS011;32569;51.762;8.564;2023-04-24T06:33:53;10.70;;;7.07;;
15230;SDS011;32569;51.762;8.564;2023-04-24T06:36:20;8.70;;;6.80;;
15230;SDS011;32569;51.762;8.564;2023-04-24T06:38:47;7.77;;;6.57;;
15230;SDS011;32569;51.762;8.564;2023-04-24T06:41:13;7.53;;;6.83;;
15230;SDS011;32569;51.762;8.564;2023-04-24T06:43:40;8.23;;;7.10;;
15230;SDS011;32569;51.762;8.564;2023-04-24T06:46:07;8.33;;;7.37;;
15230;SDS011;32569;51.762;8.564;2023-04-24T06:48:33;8.03;;;6.17;;
15230;SDS011;32569;51.762;8.564;2023-04-24T06:51:02;7.77;;;6.93;;
15230;SDS011;32569;51.762;8.564;2023-04-24T06:53:28;8.27;;;6.73;;
15230;SDS011;32569;51.762;8.564;2023-04-24T06:55:55;9.93;;;6.93;;
15230;SDS011;32569;51.762;8.564;2023-04-24T06:58:22;6.67;;;5.87;;
15230;SDS011;32569;51.762;8.564;2023-04-24T07:00:48;7.23;;;6.53;;
15230;SDS011;32569;51.762;8.564;2023-04-24T07:03:15;8.27;;;6.07;;
15230;SDS011;32569;51.762;8.564;2023-04-24T07:05:41;6.27;;;5.77;;
15230;SDS011;32569;51.762;8.564;2023-04-24T07:08:09;8.07;;;6.23;;
15230;SDS011;32569;51.762;8.564;2023-04-24T07:10:36;6.90;;;6.20;;
15230;SDS011;32569;51.762;8.564;2023-04-24T07:13:03;6.90;;;5.63;;
15230;SDS011;32569;51.762;8.564;2023-04-24T07:15:31;6.07;;;5.47;;
15230;SDS011;32569;51.762;8.564;2023-04-24T07:17:59;7.17;;;5.43;;
15230;SDS011;32569;51.762;8.564;2023-04-24T07:20:25;5.60;;;5.10;;
15230;SDS011;32569;51.762;8.564;2023-04-24T07:22:52;7.03;;;5.67;;
15230;SDS011;32569;51.762;8.564;2023-04-24T07:25:21;6.70;;;6.00;;
15230;SDS011;32569;51.762;8.564;2023-04-24T07:27:47;6.20;;;5.60;;
15230;SDS011;32569;51.762;8.564;2023-04-24T07:30:14;6.23;;;5.63;;
15230;SDS011;32569;51.762;8.564;2023-04-24T07:32:41;6.60;;;5.80;;
15230;SDS011;32569;51.762;8.564;2023-04-24T07:35:08;5.80;;;5.27;;
15230;SDS011;32569;51.762;8.564;2023-04-24T07:37:35;6.10;;;5.50;;
15230;SDS011;32569;51.762;8.564;2023-04-24T07:40:02;6.77;;;5.33;;
15230;SDS011;32569;51.762;8.564;2023-04-24T07:42:30;6.63;;;5.13;;
15230;SDS011;32569;51.762;8.564;2023-04-24T07:44:59;4.93;;;4.40;;
15230;SDS011;32569;51.762;8.564;2023-04-24T07:47:26;21.73;;;6.90;;
15230;SDS011;32569;51.762;8.564;2023-04-24T07:49:52;6.73;;;5.20;;
15230;SDS011;32569;51.762;8.564;2023-04-24T07:52:19;5.57;;;5.07;;
15230;SDS011;32569;51.762;8.564;2023-04-24T07:54:46;4.67;;;4.27;;
15230;SDS011;32569;51.762;8.564;2023-04-24T07:57:12;4.90;;;4.40;;
15230;SDS011;32569;51.762;8.564;2023-04-24T07:59:40;4.57;;;4.13;;
15230;SDS011;32569;51.762;8.564;2023-04-24T08:02:07;5.03;;;4.33;;
15230;SDS011;32569;51.762;8.564;2023-04-24T08:04:34;4.73;;;4.33;;
15230;SDS011;32569;51.762;8.564;2023-04-24T08:07:01;4.27;;;3.87;;
15230;SDS011;32569;51.762;8.564;2023-04-24T08:09:28;3.60;;;3.30;;
15230;SDS011;32569;51.762;8.564;2023-04-24T08:11:54;4.27;;;3.87;;
15230;SDS011;32569;51.762;8.564;2023-04-24T08:14:21;5.13;;;3.50;;
15230;SDS011;32569;51.762;8.564;2023-04-24T08:16:49;4.03;;;3.63;;
15230;SDS011;32569;51.762;8.564;2023-04-24T08:19:16;3.63;;;3.00;;
15230;SDS011;32569;51.762;8.564;2023-04-24T08:21:42;3.70;;;3.40;;
15230;SDS011;32569;51.762;8.564;2023-04-24T08:24:09;3.60;;;3.30;;
15230;SDS011;32569;51.762;8.564;2023-04-24T08:26:35;4.67;;;3.13;;
15230;SDS011;32569;51.762;8.564;2023-04-24T08:29:02;7.03;;;3.03;;
15230;SDS011;32569;51.762;8.564;2023-04-24T08:31:29;3.60;;;3.30;;
15230;SDS011;32569;51.762;8.564;2023-04-24T08:33:57;4.10;;;3.50;;
15230;SDS011;32569;51.762;8.564;2023-04-24T08:36:24;3.93;;;3.47;;
15230;SDS011;32569;51.762;8.564;2023-04-24T08:38:51;5.40;;;3.67;;
15230;SDS011;32569;51.762;8.564;2023-04-24T08:41:18;4.00;;;3.40;;
15230;SDS011;32569;51.762;8.564;2023-04-24T08:43:46;3.40;;;3.10;;
15230;SDS011;32569;51.762;8.564;2023-04-24T08:46:13;5.03;;;3.73;;
15230;SDS011;32569;51.762;8.564;2023-04-24T08:48:42;4.70;;;3.90;;
15230;SDS011;32569;51.762;8.564;2023-04-24T08:51:10;4.07;;;3.70;;
15230;SDS011;32569;51.762;8.564;2023-04-24T08:53:37;5.30;;;3.83;;
15230;SDS011;32569;51.762;8.564;2023-04-24T08:56:04;4.97;;;3.63;;
15230;SDS011;32569;51.762;8.564;2023-04-24T08:58:32;5.00;;;4.57;;
15230;SDS011;32569;51.762;8.564;2023-04-24T09:00:59;4.17;;;3.87;;
15230;SDS011;32569;51.762;8.564;2023-04-24T09:03:27;4.67;;;3.57;;
15230;SDS011;32569;51.762;8.564;2023-04-24T09:05:54;5.73;;;3.00;;
15230;SDS011;32569;51.762;8.564;2023-04-24T09:08:24;4.30;;;2.97;;
15230;SDS011;32569;51.762;8.564;2023-04-24T09:10:52;3.13;;;2.80;;
15230;SDS011;32569;51.762;8.564;2023-04-24T09:13:18;3.10;;;2.80;;
15230;SDS011;32569;51.762;8.564;2023-04-24T09:15:48;2.20;;;2.07;;
15230;SDS011;32569;51.762;8.564;2023-04-24T09:18:16;2.43;;;2.23;;
15230;SDS011;32569;51.762;8.564;2023-04-24T09:20:57;4.33;;;1.97;;
15230;SDS011;32569;51.762;8.564;2023-04-24T09:23:26;5.67;;;2.20;;
15230;SDS011;32569;51.762;8.564;2023-04-24T09:25:54;1.90;;;1.80;;
15230;SDS011;32569;51.762;8.564;2023-04-24T09:28:25;4.47;;;1.97;;
15230;SDS011;32569;51.762;8.564;2023-04-24T09:31:05;3.07;;;1.57;;
15230;SDS011;32569;51.762;8.564;2023-04-24T09:33:34;5.63;;;1.50;;
15230;SDS011;32569;51.762;8.564;2023-04-24T09:36:01;1.63;;;1.30;;
15230;SDS011;32569;51.762;8.564;2023-04-24T09:38:36;3.23;;;1.17;;
15230;SDS011;32569;51.762;8.564;2023-04-24T09:41:04;1.13;;;1.13;;
15230;SDS011;32569;51.762;8.564;2023-04-24T09:43:32;1.43;;;1.33;;
15230;SDS011;32569;51.762;8.564;2023-04-24T09:46:00;2.67;;;1.50;;
15230;SDS011;32569;51.762;8.564;2023-04-24T09:48:31;1.20;;;1.20;;
15230;SDS011;32569;51.762;8.564;2023-04-24T09:51:00;1.00;;;0.90;;
15230;SDS011;32569;51.762;8.564;2023-04-24T09:53:28;1.10;;;1.00;;
15230;SDS011;32569;51.762;8.564;2023-04-24T09:55:56;1.63;;;1.00;;
15230;SDS011;32569;51.762;8.564;2023-04-24T09:58:29;1.10;;;1.10;;
15230;SDS011;32569;51.762;8.564;2023-04-24T10:00:55;20.43;;;2.10;;
15230;SDS011;32569;51.762;8.564;2023-04-24T10:03:23;1.67;;;0.90;;
15230;SDS011;32569;51.762;8.564;2023-04-24T10:05:51;2.07;;;1.50;;
15230;SDS011;32569;51.762;8.564;2023-04-24T10:08:18;1.43;;;1.13;;
15230;SDS011;32569;51.762;8.564;2023-04-24T10:10:46;1.33;;;1.30;;
15230;SDS011;32569;51.762;8.564;2023-04-24T10:13:14;1.33;;;1.00;;
15230;SDS011;32569;51.762;8.564;2023-04-24T10:15:41;1.20;;;1.10;;
15230;SDS011;32569;51.762;8.564;2023-04-24T10:18:09;3.20;;;1.53;;
15230;SDS011;32569;51.762;8.564;2023-04-24T10:20:37;1.80;;;1.70;;
15230;SDS011;32569;51.762;8.564;2023-04-24T10:23:05;2.60;;;1.70;;
15230;SDS011;32569;51.762;8.564;2023-04-24T10:25:32;1.60;;;1.50;;
15230;SDS011;32569;51.762;8.564;2023-04-24T10:28:00;2.47;;;1.97;;
15230;SDS011;32569;51.762;8.564;2023-04-24T10:30:29;1.90;;;1.40;;
15230;SDS011;32569;51.762;8.564;2023-04-24T10:32:59;1.43;;;1.10;;
15230;SDS011;32569;51.762;8.564;2023-04-24T10:35:26;1.47;;;1.37;;
15230;SDS011;32569;51.762;8.564;2023-04-24T10:37:58;1.40;;;0.80;;
15230;SDS011;32569;51.762;8.564;2023-04-24T10:40:30;7.63;;;1.43;;
15230;SDS011;32569;51.762;8.564;2023-04-24T10:42:58;1.63;;;1.00;;
15230;SDS011;32569;51.762;8.564;2023-04-24T10:45:26;2.47;;;1.33;;
15230;SDS011;32569;51.762;8.564;2023-04-24T10:47:54;1.10;;;1.10;;
15230;SDS011;32569;51.762;8.564;2023-04-24T10:50:25;2.93;;;1.40;;
15230;SDS011;32569;51.762;8.564;2023-04-24T10:52:52;1.30;;;1.20;;
15230;SDS011;32569;51.762;8.564;2023-04-24T10:55:40;1.33;;;1.27;;
15230;SDS011;32569;51.762;8.564;2023-04-24T10:58:08;6.10;;;1.47;;
15230;SDS011;32569;51.762;8.564;2023-04-24T11:00:36;0.93;;;0.93;;
15230;SDS011;32569;51.762;8.564;2023-04-24T11:03:05;0.90;;;0.90;;
15230;SDS011;32569;51.762;8.564;2023-04-24T11:05:51;1.77;;;1.57;;
15230;SDS011;32569;51.762;8.564;2023-04-24T11:08:21;5.33;;;1.43;;
15230;SDS011;32569;51.762;8.564;2023-04-24T11:10:57;1.27;;;1.27;;
15230;SDS011;32569;51.762;8.564;2023-04-24T11:13:27;2.30;;;1.80;;
15230;SDS011;32569;51.762;8.564;2023-04-24T11:16:15;1.67;;;1.53;;
15230;SDS011;32569;51.762;8.564;2023-04-24T11:18:49;1.83;;;1.50;;
15230;SDS011;32569;51.762;8.564;2023-04-24T11:21:19;1.83;;;1.73;;
15230;SDS011;32569;51.762;8.564;2023-04-24T11:23:46;2.30;;;1.90;;
15230;SDS011;32569;51.762;8.564;2023-04-24T11:26:14;3.20;;;2.10;;
15230;SDS011;32569;51.762;8.564;2023-04-24T11:28:45;4.10;;;2.10;;
15230;SDS011;32569;51.762;8.564;2023-04-24T11:34:08;2.70;;;2.50;;
15230;SDS011;32569;51.762;8.564;2023-04-24T11:36:35;2.47;;;2.27;;
15230;SDS011;32569;51.762;8.564;2023-04-24T11:39:02;3.30;;;2.70;;
15230;SDS011;32569;51.762;8.564;2023-04-24T11:41:29;2.60;;;2.40;;
15230;SDS011;32569;51.762;8.564;2023-04-24T11:43:56;2.60;;;2.40;;
15230;SDS011;32569;51.762;8.564;2023-04-24T11:46:26;2.93;;;2.40;;
15230;SDS011;32569;51.762;8.564;2023-04-24T11:48:53;2.33;;;2.23;;
15230;SDS011;32569;51.762;8.564;2023-04-24T11:51:21;2.87;;;2.50;;
15230;SDS011;32569;51.762;8.564;2023-04-24T11:53:48;2.87;;;2.63;;
15230;SDS011;32569;51.762;8.564;2023-04-24T11:56:17;2.90;;;2.60;;
15230;SDS011;32569;51.762;8.564;2023-04-24T11:58:44;3.40;;;3.10;;
15230;SDS011;32569;51.762;8.564;2023-04-24T12:01:11;2.10;;;2.00;;
15230;SDS011;32569;51.762;8.564;2023-04-24T12:03:38;2.03;;;1.93;;
15230;SDS011;32569;51.762;8.564;2023-04-24T12:06:08;2.00;;;1.90;;
15230;SDS011;32569;51.762;8.564;2023-04-24T12:08:37;2.70;;;2.50;;
15230;SDS011;32569;51.762;8.564;2023-04-24T12:11:04;2.40;;;2.17;;
15230;SDS011;32569;51.762;8.564;2023-04-24T12:13:33;2.90;;;2.53;;
15230;SDS011;32569;51.762;8.564;2023-04-24T12:15:59;3.70;;;2.57;;
15230;SDS011;32569;51.762;8.564;2023-04-24T12:18:27;3.20;;;2.80;;
15230;SDS011;32569;51.762;8.564;2023-04-24T12:20:54;3.80;;;3.27;;
15230;SDS011;32569;51.762;8.564;2023-04-24T12:23:33;4.93;;;3.03;;
15230;SDS011;32569;51.762;8.564;2023-04-24T12:26:03;3.40;;;2.90;;
15230;SDS011;32569;51.762;8.564;2023-04-24T12:28:34;3.70;;;3.30;;
15230;SDS011;32569;51.762;8.564;2023-04-24T12:31:01;4.27;;;3.13;;
15230;SDS011;32569;51.762;8.564;2023-04-24T12:33:32;3.50;;;3.20;;
15230;SDS011;32569;51.762;8.564;2023-04-24T12:36:00;3.50;;;3.20;;
15230;SDS011;32569;51.762;8.564;2023-04-24T12:38:27;3.27;;;2.97;;
15230;SDS011;32569;51.762;8.564;2023-04-24T12:41:02;3.53;;;3.23;;
15230;SDS011;32569;51.762;8.564;2023-04-24T12:43:30;5.67;;;3.43;;
15230;SDS011;32569;51.762;8.564;2023-04-24T12:45:57;3.97;;;3.23;;
15230;SDS011;32569;51.762;8.564;2023-04-24T12:48:24;3.40;;;3.10;;
15230;SDS011;32569;51.762;8.564;2023-04-24T12:50:51;4.83;;;3.80;;
15230;SDS011;32569;51.762;8.564;2023-04-24T12:53:18;5.00;;;4.20;;
15230;SDS011;32569;51.762;8.564;2023-04-24T12:55:44;4.90;;;4.40;;
15230;SDS011;32569;51.762;8.564;2023-04-24T12:58:18;7.07;;;4.73;;
15230;SDS011;32569;51.762;8.564;2023-04-24T13:00:45;5.50;;;4.87;;
15230;SDS011;32569;51.762;8.564;2023-04-24T13:03:12;8.13;;;5.47;;
15230;SDS011;32569;51.762;8.564;2023-04-24T13:05:39;8.67;;;4.90;;
15230;SDS011;32569;51.762;8.564;2023-04-24T13:08:07;9.53;;;4.87;;
15230;SDS011;32569;51.762;8.564;2023-04-24T13:10:33;10.80;;;4.70;;
15230;SDS011;32569;51.762;8.564;2023-04-24T13:13:00;5.30;;;4.80;;
15230;SDS011;32569;51.762;8.564;2023-04-24T13:15:28;8.93;;;5.17;;
15230;SDS011;32569;51.762;8.564;2023-04-24T13:17:55;7.83;;;5.47;;
15230;SDS011;32569;51.762;8.564;2023-04-24T13:20:22;7.40;;;4.27;;
15230;SDS011;32569;51.762;8.564;2023-04-24T13:22:48;7.93;;;4.57;;
15230;SDS011;32569;51.762;8.564;2023-04-24T13:25:15;6.07;;;5.20;;
15230;SDS011;32569;51.762;8.564;2023-04-24T13:27:42;7.90;;;5.17;;
15230;SDS011;32569;51.762;8.564;2023-04-24T13:30:10;6.60;;;4.90;;
15230;SDS011;32569;51.762;8.564;2023-04-24T13:32:38;7.90;;;5.17;;
15230;SDS011;32569;51.762;8.564;2023-04-24T13:35:05;6.43;;;4.73;;
15230;SDS011;32569;51.762;8.564;2023-04-24T13:37:32;9.10;;;5.57;;
15230;SDS011;32569;51.762;8.564;2023-04-24T13:39:58;10.10;;;5.37;;
15230;SDS011;32569;51.762;8.564;2023-04-24T13:42:25;9.17;;;6.07;;
15230;SDS011;32569;51.762;8.564;2023-04-24T13:44:52;7.40;;;5.47;;
15230;SDS011;32569;51.762;8.564;2023-04-24T13:47:19;9.47;;;5.97;;
15230;SDS011;32569;51.762;8.564;2023-04-24T13:49:47;8.80;;;6.50;;
15230;SDS011;32569;51.762;8.564;2023-04-24T13:52:13;8.53;;;6.63;;
15230;SDS011;32569;51.762;8.564;2023-04-24T13:54:40;11.20;;;7.07;;
15230;SDS011;32569;51.762;8.564;2023-04-24T13:57:07;10.87;;;6.20;;
15230;SDS011;32569;51.762;8.564;2023-04-24T13:59:34;9.03;;;6.03;;
15230;SDS011;32569;51.762;8.564;2023-04-24T14:02:00;8.30;;;6.70;;
15230;SDS011;32569;51.762;8.564;2023-04-24T14:04:27;12.70;;;7.40;;
15230;SDS011;32569;51.762;8.564;2023-04-24T14:06:55;7.33;;;6.37;;
15230;SDS011;32569;51.762;8.564;2023-04-24T14:09:22;7.83;;;7.03;;
15230;SDS011;32569;51.762;8.564;2023-04-24T14:11:48;12.30;;;7.33;;
15230;SDS011;32569;51.762;8.564;2023-04-24T14:14:18;11.03;;;7.37;;
15230;SDS011;32569;51.762;8.564;2023-04-24T14:16:45;10.17;;;7.60;;
15230;SDS011;32569;51.762;8.564;2023-04-24T14:19:11;10.57;;;6.97;;
15230;SDS011;32569;51.762;8.564;2023-04-24T14:21:38;9.23;;;7.70;;
15230;SDS011;32569;51.762;8.564;2023-04-24T14:24:06;10.07;;;8.03;;
15230;SDS011;32569;51.762;8.564;2023-04-24T14:26:34;11.10;;;7.77;;
15230;SDS011;32569;51.762;8.564;2023-04-24T14:29:00;9.10;;;7.00;;
15230;SDS011;32569;51.762;8.564;2023-04-24T14:31:27;10.13;;;7.10;;
15230;SDS011;32569;51.762;8.564;2023-04-24T14:34:03;9.27;;;7.03;;
15230;SDS011;32569;51.762;8.564;2023-04-24T14:36:29;10.57;;;6.67;;
15230;SDS011;32569;51.762;8.564;2023-04-24T14:38:56;9.63;;;6.70;;
15230;SDS011;32569;51.762;8.564;2023-04-24T14:41:24;8.00;;;6.13;;
15230;SDS011;32569;51.762;8.564;2023-04-24T14:43:51;9.07;;;5.80;;
15230;SDS011;32569;51.762;8.564;2023-04-24T14:46:17;8.60;;;5.43;;
15230;SDS011;32569;51.762;8.564;2023-04-24T14:48:44;7.10;;;5.10;;
15230;SDS011;32569;51.762;8.564;2023-04-24T14:51:10;4.73;;;4.17;;
15230;SDS011;32569;51.762;8.564;2023-04-24T14:53:37;5.00;;;4.50;;